createdAt,value
2024-01-16T00:01:11.069Z,98157.73
2024-01-16T00:03:17.238Z,98154.39
2024-01-16T00:05:21.999Z,98166.16
2024-01-16T00:07:26.740Z,98154.79
2024-01-16T00:09:37.613Z,98155.38
2024-01-16T00:11:44.901Z,98157.70
2024-01-16T00:13:49.604Z,98158.38
2024-01-16T00:15:54.952Z,98159.58
2024-01-16T00:17:59.847Z,98175.48
2024-01-16T00:20:06.104Z,98161.67
2024-01-16T00:22:10.957Z,98162.71
2024-01-16T00:24:15.658Z,98163.03
2024-01-16T00:26:24.064Z,98164.49
2024-01-16T00:28:28.732Z,98160.92
2024-01-16T00:30:33.865Z,98168.86
2024-01-16T00:32:39.915Z,98158.65
2024-01-16T00:34:48.869Z,98167.39
2024-01-16T00:36:53.510Z,98179.55
2024-01-16T00:38:59.785Z,98167.67
2024-01-16T00:41:04.585Z,98168.23
2024-01-16T00:43:09.296Z,98156.04
2024-01-16T00:45:16.957Z,98164.13
2024-01-16T00:47:22.609Z,98164.81
2024-01-16T00:49:27.348Z,98166.67
2024-01-16T00:51:34.588Z,98175.59
2024-01-16T00:53:43.868Z,98171.95
2024-01-16T00:55:52.648Z,98176.31
2024-01-16T00:58:03.409Z,98182.64
2024-01-16T01:00:10.488Z,98185.17
2024-01-16T01:02:15.459Z,98183.92
2024-01-16T01:04:20.173Z,98187.02
2024-01-16T01:06:27.651Z,98192.66
2024-01-16T01:08:32.509Z,98203.12
2024-01-16T01:10:38.419Z,98200.45
2024-01-16T01:12:43.233Z,98197.23
2024-01-16T01:14:48.174Z,98195.89
2024-01-16T01:16:55.792Z,98204.03
2024-01-16T01:19:03.222Z,98211.63
2024-01-16T01:21:10.615Z,98213.41
2024-01-16T01:23:15.340Z,98214.80
2024-01-16T01:25:20.092Z,98222.00
2024-01-16T01:27:26.133Z,98221.70
2024-01-16T01:29:30.785Z,98224.23
2024-01-16T01:31:36.306Z,98231.71
2024-01-16T01:33:41.288Z,98237.92
2024-01-16T01:35:46.347Z,98231.14
2024-01-16T01:37:54.114Z,98233.71
2024-01-16T01:40:02.635Z,98234.06
2024-01-16T01:42:07.990Z,98255.58
2024-01-16T01:44:13.237Z,98250.60
2024-01-16T01:46:20.406Z,98263.36
2024-01-16T01:48:25.463Z,98257.00
2024-01-16T01:50:31.689Z,98268.62
2024-01-16T01:52:36.917Z,98268.48
2024-01-16T01:54:44.888Z,98273.67
2024-01-16T01:56:53.797Z,98269.09
2024-01-16T01:59:00.374Z,98275.64
2024-01-16T02:01:06.705Z,98270.86
2024-01-16T02:03:12.488Z,98281.27
2024-01-16T02:05:20.600Z,98289.89
2024-01-16T02:07:26.008Z,98289.04
2024-01-16T02:09:30.929Z,98290.42
2024-01-16T02:11:35.614Z,98305.55
2024-01-16T02:13:43.080Z,98297.20
2024-01-16T02:15:47.952Z,98306.35
2024-01-16T02:17:56.970Z,98311.11
2024-01-16T02:20:01.723Z,98323.64
2024-01-16T02:22:10.464Z,98316.36
2024-01-16T02:24:19.599Z,98324.70
2024-01-16T02:26:25.738Z,98327.20
2024-01-16T02:28:30.543Z,98333.21
2024-01-16T02:30:37.949Z,98345.15
2024-01-16T02:32:42.785Z,98344.20
2024-01-16T02:34:47.510Z,98340.44
2024-01-16T02:36:52.811Z,98350.67
2024-01-16T02:38:57.628Z,98339.63
2024-01-16T02:41:05.994Z,98347.50
2024-01-16T02:43:10.680Z,98343.55
2024-01-16T02:45:15.553Z,98354.04
2024-01-16T02:47:20.555Z,98359.36
2024-01-16T02:49:25.214Z,98359.45
2024-01-16T02:51:29.936Z,98358.50
2024-01-16T02:53:34.925Z,98362.07
2024-01-16T02:55:39.730Z,98367.86
2024-01-16T02:57:44.373Z,98376.92
2024-01-16T02:59:49.182Z,98371.75
2024-01-16T03:01:53.934Z,98365.21
2024-01-16T03:03:58.608Z,98365.88
2024-01-16T03:06:03.429Z,98368.77
2024-01-16T03:08:08.284Z,98373.75
2024-01-16T03:10:13.278Z,98379.03
2024-01-16T03:12:20.294Z,98380.08
2024-01-16T03:14:27.871Z,98381.39
2024-01-16T03:16:33.006Z,98385.33
2024-01-16T03:18:38.339Z,98378.58
2024-01-16T03:20:45.842Z,98379.27
2024-01-16T03:22:50.600Z,98380.27
2024-01-16T03:24:55.487Z,98384.41
2024-01-16T03:27:00.887Z,98386.92
2024-01-16T03:29:06.653Z,98399.81
2024-01-16T03:31:13.169Z,98408.61
2024-01-16T03:33:18.169Z,98406.11
2024-01-16T03:35:22.984Z,98397.56
2024-01-16T03:37:27.694Z,98393.64
2024-01-16T03:39:35.511Z,98410.23
2024-01-16T03:41:40.830Z,98409.27
2024-01-16T03:43:45.504Z,98415.67
2024-01-16T03:45:50.163Z,98413.08
2024-01-16T03:47:55.211Z,98405.63
2024-01-16T03:50:03.010Z,98407.41
2024-01-16T03:52:08.297Z,98429.41
2024-01-16T03:54:12.901Z,98405.44
2024-01-16T03:56:20.656Z,98423.77
2024-01-16T03:58:25.302Z,98423.89
2024-01-16T04:00:32.646Z,98432.86
2024-01-16T04:02:39.657Z,98442.56
2024-01-16T04:04:47.098Z,98446.75
2024-01-16T04:06:51.810Z,98439.77
2024-01-16T04:08:56.422Z,98444.46
2024-01-16T04:11:01.387Z,98444.52
2024-01-16T04:13:06.645Z,98433.31
2024-01-16T04:15:11.969Z,98433.33
2024-01-16T04:17:16.609Z,98443.14
2024-01-16T04:19:21.847Z,98452.75
2024-01-16T04:21:29.813Z,98451.61
2024-01-16T04:23:34.616Z,98438.98
2024-01-16T04:25:42.090Z,98457.48
2024-01-16T04:27:46.754Z,98460.70
2024-01-16T04:29:51.482Z,98452.32
2024-01-16T04:31:59.469Z,98449.96
2024-01-16T04:34:05.019Z,98447.80
2024-01-16T04:36:12.306Z,98442.14
2024-01-16T04:38:16.966Z,98447.94
2024-01-16T04:40:24.375Z,98436.06
2024-01-16T04:42:29.568Z,98442.36
2024-01-16T04:44:35.756Z,98445.83
2024-01-16T04:46:43.608Z,98441.86
2024-01-16T04:48:48.926Z,98449.13
2024-01-16T04:50:53.789Z,98457.14
2024-01-16T04:53:01.736Z,98453.64
2024-01-16T04:55:07.582Z,98454.73
2024-01-16T04:57:12.212Z,98447.73
2024-01-16T04:59:19.975Z,98448.52
2024-01-16T05:01:24.652Z,98443.81
2024-01-16T05:03:32.213Z,98447.35
2024-01-16T05:05:37.299Z,98455.02
2024-01-16T05:07:42.197Z,98447.96
2024-01-16T05:09:48.195Z,98453.36
2024-01-16T05:11:52.808Z,98456.70
2024-01-16T05:13:57.612Z,98461.55
2024-01-16T05:16:02.536Z,98457.73
2024-01-16T05:18:07.912Z,98465.19
2024-01-16T05:20:14.575Z,98474.59
2024-01-16T05:22:23.101Z,98468.98
2024-01-16T05:24:28.914Z,98468.23
2024-01-16T05:26:36.691Z,98485.26
2024-01-16T05:28:42.683Z,98486.07
2024-01-16T05:30:47.890Z,98492.44
2024-01-16T05:32:55.389Z,98482.80
2024-01-16T05:35:00.021Z,98499.73
2024-01-16T05:37:04.888Z,98492.80
2024-01-16T05:39:09.920Z,98502.02
2024-01-16T05:41:14.529Z,98495.43
2024-01-16T05:43:22.067Z,98505.50
2024-01-16T05:45:26.800Z,98489.84
2024-01-16T05:47:32.459Z,98504.09
2024-01-16T05:49:37.365Z,98500.52
2024-01-16T05:51:42.150Z,98504.31
2024-01-16T05:53:46.808Z,98506.52
2024-01-16T05:55:56.983Z,98510.41
2024-01-16T05:58:03.044Z,98511.47
2024-01-16T06:00:10.897Z,98514.58
2024-01-16T06:02:15.585Z,98512.80
2024-01-16T06:04:23.122Z,98520.59
2024-01-16T06:06:30.513Z,98515.54
2024-01-16T06:08:35.775Z,98522.44
2024-01-16T06:10:40.431Z,98522.30
2024-01-16T06:12:47.865Z,98529.08
2024-01-16T06:14:54.199Z,98534.01
2024-01-16T06:17:00.356Z,98532.21
2024-01-16T06:19:07.743Z,98533.05
2024-01-16T06:21:12.456Z,98542.93
2024-01-16T06:23:17.159Z,98540.20
2024-01-16T06:25:21.806Z,98542.08
2024-01-16T06:27:26.426Z,98557.59
2024-01-16T06:29:35.582Z,98555.47
2024-01-16T06:31:45.036Z,98555.43
2024-01-16T06:33:49.936Z,98548.60
2024-01-16T06:35:55.557Z,98561.66
2024-01-16T06:38:01.334Z,98554.71
2024-01-16T06:40:07.565Z,98565.94
2024-01-16T06:42:13.543Z,98574.49
2024-01-16T06:44:18.298Z,98577.02
2024-01-16T06:46:25.879Z,98580.17
2024-01-16T06:48:33.466Z,98588.60
2024-01-16T06:50:41.335Z,98583.71
2024-01-16T06:52:46.076Z,98585.85
2024-01-16T06:54:50.779Z,98585.20
2024-01-16T06:56:58.535Z,98582.73
2024-01-16T06:59:03.248Z,98580.36
2024-01-16T07:01:11.652Z,98586.18
2024-01-16T07:03:16.787Z,98585.38
2024-01-16T07:05:21.627Z,98596.51
2024-01-16T07:07:26.626Z,98590.84
2024-01-16T07:09:31.283Z,98592.54
2024-01-16T07:11:38.833Z,98596.84
2024-01-16T07:13:44.587Z,98604.90
2024-01-16T07:15:52.520Z,98602.42
2024-01-16T07:17:59.961Z,98609.27
2024-01-16T07:20:07.636Z,98605.21
2024-01-16T07:22:14.950Z,98607.35
2024-01-16T07:24:19.640Z,98607.64
2024-01-16T07:26:26.162Z,98621.89
2024-01-16T07:28:34.633Z,98621.10
2024-01-16T07:30:42.337Z,98625.45
2024-01-16T07:32:47.218Z,98632.36
2024-01-16T07:34:51.916Z,98624.19
2024-01-16T07:36:57.475Z,98634.92
2024-01-16T07:39:05.023Z,98627.11
2024-01-16T07:41:09.724Z,98640.73
2024-01-16T07:43:14.777Z,98632.66
2024-01-16T07:45:19.888Z,98641.16
2024-01-16T07:47:24.594Z,98642.15
2024-01-16T07:49:29.700Z,98642.28
2024-01-16T07:51:34.683Z,98640.58
2024-01-16T07:53:39.795Z,98651.02
2024-01-16T07:55:44.799Z,98655.42
2024-01-16T07:57:52.723Z,98656.20
2024-01-16T07:59:57.393Z,98657.73
2024-01-16T08:02:02.472Z,98660.23
2024-01-16T08:04:10.119Z,98668.70
2024-01-16T08:06:15.007Z,98673.59
2024-01-16T08:08:25.671Z,98667.09
2024-01-16T08:10:30.339Z,98663.87
2024-01-16T08:12:37.905Z,98661.83
2024-01-16T08:14:45.944Z,98671.95
2024-01-16T08:16:50.694Z,98674.64
2024-01-16T08:18:55.497Z,98673.30
2024-01-16T08:21:00.210Z,98676.58
2024-01-16T08:23:05.240Z,98677.98
2024-01-16T08:25:15.743Z,98686.59
2024-01-16T08:27:21.834Z,98691.89
2024-01-16T08:29:26.769Z,98713.82
2024-01-16T08:31:31.670Z,98691.86
2024-01-16T08:33:43.204Z,98687.11
2024-01-16T08:48:24.064Z,98694.88
2024-01-16T08:50:29.838Z,98702.25
2024-01-16T08:52:34.503Z,98712.48
2024-01-16T08:54:42.148Z,98712.44
2024-01-16T08:56:49.515Z,98710.88
2024-01-16T08:58:54.275Z,98710.86
2024-01-16T09:00:58.979Z,98721.30
2024-01-16T09:03:06.793Z,98712.98
2024-01-16T09:05:11.800Z,98714.20
2024-01-16T09:07:19.635Z,98725.27
2024-01-16T09:09:24.358Z,98731.10
2024-01-16T09:11:34.809Z,98720.52
2024-01-16T09:13:39.833Z,98721.73
2024-01-16T09:15:44.530Z,98725.10
2024-01-16T09:17:49.389Z,98736.25
2024-01-16T09:20:01.236Z,98730.03
2024-01-16T09:22:06.232Z,98728.23
2024-01-16T09:24:10.957Z,98726.11
2024-01-16T09:26:17.859Z,98730.58
2024-01-16T09:28:25.601Z,98729.51
2024-01-16T09:30:30.366Z,98732.36
2024-01-16T09:32:35.240Z,98732.19
2024-01-16T09:34:39.925Z,98743.86
2024-01-16T09:36:44.699Z,98757.14
2024-01-16T09:38:49.503Z,98741.79
2024-01-16T09:40:55.114Z,98743.99
2024-01-16T09:43:00.011Z,98738.08
2024-01-16T09:45:05.996Z,98745.20
2024-01-16T09:47:11.312Z,98744.53
2024-01-16T09:49:18.832Z,98745.23
2024-01-16T09:51:23.815Z,98749.29
2024-01-16T09:53:28.595Z,98753.33
2024-01-16T09:55:34.591Z,98754.77
2024-01-16T09:57:41.863Z,98761.21
2024-01-16T09:59:46.944Z,98768.50
2024-01-16T10:01:55.524Z,98754.89
2024-01-16T10:04:01.364Z,98762.31
2024-01-16T10:06:08.052Z,98765.90
2024-01-16T10:08:25.375Z,98766.52
2024-01-16T10:10:42.329Z,98767.17
2024-01-16T10:12:56.678Z,98767.54
2024-01-16T10:15:06.460Z,98770.97
2024-01-16T10:17:11.199Z,98759.83
2024-01-16T10:19:15.878Z,98760.36
2024-01-16T10:21:24.968Z,98758.80
2024-01-16T10:23:31.009Z,98759.17
2024-01-16T10:25:35.832Z,98765.00
2024-01-16T10:27:41.280Z,98763.88
2024-01-16T10:29:57.839Z,98762.26
2024-01-16T10:32:03.812Z,98764.99
2024-01-16T10:34:21.772Z,98771.64
2024-01-16T10:36:26.861Z,98758.83
2024-01-16T10:38:31.508Z,98767.90
2024-01-16T10:40:36.192Z,98777.89
2024-01-16T10:42:43.927Z,98770.67
2024-01-16T10:44:56.980Z,98763.94
2024-01-16T10:47:13.914Z,98771.59
2024-01-16T10:49:22.528Z,98760.19
2024-01-16T10:51:29.816Z,98756.83
2024-01-16T10:53:38.594Z,98760.62
2024-01-16T10:55:50.879Z,98761.31
2024-01-16T10:57:56.625Z,98764.77
2024-01-16T11:00:09.927Z,98762.54
2024-01-16T11:02:16.101Z,98765.36
2024-01-16T11:04:21.257Z,98761.84
2024-01-16T11:06:27.734Z,98761.28
2024-01-16T11:08:33.051Z,98756.15
2024-01-16T11:10:41.527Z,98757.96
2024-01-16T11:12:51.009Z,98762.83
2024-01-16T11:14:57.756Z,98760.20
2024-01-16T11:17:03.922Z,98759.40
2024-01-16T11:19:25.262Z,98752.20
2024-01-16T11:21:36.118Z,98758.37
2024-01-16T11:36:52.231Z,98751.57
2024-01-16T11:38:58.826Z,98746.95
2024-01-16T11:41:01.602Z,98747.56
2024-01-16T11:43:37.649Z,98748.54
2024-01-16T11:45:53.060Z,98745.21
2024-01-16T11:48:10.391Z,98752.77
2024-01-16T11:50:27.819Z,98746.47
2024-01-16T11:52:44.099Z,98739.62
2024-01-16T11:54:50.133Z,98733.58
2024-01-16T11:57:28.632Z,98731.89
2024-01-16T11:59:57.659Z,98735.69
2024-01-16T12:02:09.437Z,98728.16
2024-01-16T12:04:16.088Z,98729.40
2024-01-16T12:06:19.238Z,98719.65
2024-01-16T12:08:23.333Z,98729.45
2024-01-16T12:10:26.502Z,98716.27
2024-01-16T12:12:29.286Z,98722.18
2024-01-16T12:14:32.745Z,98715.55
2024-01-16T12:16:38.345Z,98714.59
2024-01-16T12:18:46.153Z,98716.88
2024-01-16T12:20:52.196Z,98722.75
2024-01-16T12:22:59.204Z,98716.89
2024-01-16T12:25:02.159Z,98715.24
2024-01-16T12:27:05.341Z,98715.95
2024-01-16T12:29:08.151Z,98713.33
2024-01-16T12:31:18.235Z,98708.68
2024-01-16T12:33:23.781Z,98713.86
2024-01-16T12:35:26.555Z,98711.45
2024-01-16T12:37:29.214Z,98708.56
2024-01-16T12:39:31.879Z,98706.61
2024-01-16T12:41:42.850Z,98703.89
2024-01-16T12:43:57.549Z,98707.96
2024-01-16T12:46:07.192Z,98699.98
2024-01-16T12:48:13.316Z,98698.91
2024-01-16T12:50:21.493Z,98701.71
2024-01-16T12:52:30.067Z,98701.52
2024-01-16T12:54:33.744Z,98704.30
2024-01-16T12:56:38.783Z,98703.15
2024-01-16T12:58:46.059Z,98709.08
2024-01-16T13:00:50.169Z,98707.98
2024-01-16T13:02:52.989Z,98706.23
2024-01-16T13:04:58.622Z,98710.87
2024-01-16T13:07:05.860Z,98706.89
2024-01-16T13:09:11.847Z,98705.04
2024-01-16T13:11:22.938Z,98713.67
2024-01-16T13:13:35.983Z,98708.83
2024-01-16T13:15:38.916Z,98707.30
2024-01-16T13:17:41.621Z,98706.54
2024-01-16T13:19:44.595Z,98709.70
2024-01-16T13:21:47.964Z,98710.25
2024-01-16T13:23:50.584Z,98711.36
2024-01-16T13:25:57.187Z,98723.88
2024-01-16T13:27:59.811Z,98718.35
2024-01-16T13:30:02.925Z,98717.36
2024-01-16T13:32:06.312Z,98709.75
2024-01-16T13:34:09.537Z,98708.06
2024-01-16T13:36:17.137Z,98708.54
2024-01-16T13:38:21.266Z,98711.08
2024-01-16T13:40:26.849Z,98704.58
2024-01-16T13:42:32.817Z,98707.29
2024-01-16T13:44:35.448Z,98708.85
2024-01-16T13:48:47.747Z,98699.58
2024-01-16T13:50:51.347Z,98693.21
2024-01-16T13:52:54.340Z,98697.00
2024-01-16T13:54:57.143Z,98695.25
2024-01-16T13:57:07.186Z,98692.90
2024-01-16T13:59:11.588Z,98695.64
2024-01-16T14:01:20.441Z,98690.64
2024-01-16T14:03:25.536Z,98697.00
2024-01-16T14:05:30.211Z,98693.58
2024-01-16T14:07:35.731Z,98694.81
2024-01-16T14:09:38.354Z,98705.06
2024-01-16T14:11:41.614Z,98705.27
2024-01-16T14:13:44.250Z,98707.18
2024-01-16T14:15:46.945Z,98708.19
2024-01-16T14:17:50.964Z,98701.66
2024-01-16T14:19:53.608Z,98704.42
2024-01-16T14:21:56.364Z,98703.80
2024-01-16T14:24:01.147Z,98704.63
2024-01-16T14:26:04.373Z,98700.77
2024-01-16T14:28:12.340Z,98695.78
2024-01-16T14:30:18.211Z,98699.32
2024-01-16T14:34:40.979Z,98693.30
2024-01-16T14:36:43.834Z,98692.12
2024-01-16T14:38:46.701Z,98688.55
2024-01-16T14:40:49.422Z,98681.50
2024-01-16T14:42:52.934Z,98681.55
2024-01-16T14:44:55.794Z,98683.08
2024-01-16T14:46:58.443Z,98681.36
2024-01-16T14:49:01.290Z,98681.19
2024-01-16T14:51:04.770Z,98682.87
2024-01-16T14:53:07.450Z,98685.54
2024-01-16T14:55:10.664Z,98682.04
2024-01-16T14:57:13.317Z,98682.55
2024-01-16T14:59:18.620Z,98679.69
2024-01-16T15:01:21.668Z,98680.64
2024-01-16T15:03:24.710Z,98678.34
2024-01-16T15:05:27.653Z,98684.51
2024-01-16T15:07:30.475Z,98682.23
2024-01-16T15:09:33.265Z,98685.66
2024-01-16T15:11:35.957Z,98688.85
2024-01-16T15:13:38.898Z,98684.77
2024-01-16T15:15:41.777Z,98690.80
2024-01-16T15:17:45.364Z,98686.23
2024-01-16T15:19:48.382Z,98681.98
2024-01-16T15:21:50.961Z,98685.62
2024-01-16T15:23:56.574Z,98686.86
2024-01-16T15:25:59.489Z,98698.38
2024-01-16T15:28:02.273Z,98701.16
2024-01-16T15:30:06.920Z,98708.50
2024-01-16T15:32:12.329Z,98713.02
2024-01-16T15:34:17.244Z,98715.95
2024-01-16T15:36:20.240Z,98712.27
2024-01-16T15:38:25.907Z,98714.59
2024-01-16T15:40:28.646Z,98715.36
2024-01-16T15:42:31.288Z,98715.73
2024-01-16T15:44:34.253Z,98717.83
2024-01-16T15:46:54.520Z,98713.26
2024-01-16T15:48:57.440Z,98723.86
2024-01-16T15:51:00.588Z,98726.14
2024-01-16T15:53:03.877Z,98731.64
2024-01-16T15:57:10.353Z,98736.16
2024-01-16T15:59:13.604Z,98734.59
2024-01-16T16:01:16.400Z,98731.58
2024-01-16T16:03:19.378Z,98729.62
2024-01-16T16:05:25.303Z,98733.33
2024-01-16T16:07:28.023Z,98731.75
2024-01-16T16:09:30.706Z,98729.93
2024-01-16T16:11:36.318Z,98731.71
2024-01-16T16:13:38.935Z,98733.60
2024-01-16T16:15:41.808Z,98739.51
2024-01-16T16:17:44.688Z,98742.65
2024-01-16T16:19:47.411Z,98741.08
2024-01-16T16:21:50.281Z,98742.62
2024-01-16T16:23:53.058Z,98741.18
2024-01-16T16:25:55.759Z,98741.03
2024-01-16T16:27:58.393Z,98741.77
2024-01-16T16:30:01.346Z,98736.56
2024-01-16T16:32:04.574Z,98735.15
2024-01-16T16:34:09.237Z,98736.23
2024-01-16T16:36:11.958Z,98736.98
2024-01-16T16:38:14.605Z,98735.61
2024-01-16T16:40:17.297Z,98737.84
2024-01-16T16:42:20.121Z,98748.74
2024-01-16T16:44:22.827Z,98751.95
2024-01-16T16:46:25.735Z,98752.08
2024-01-16T16:48:28.447Z,98753.96
2024-01-16T16:50:31.087Z,98746.06
2024-01-16T16:52:33.663Z,98737.83
2024-01-16T16:54:36.242Z,98733.73
2024-01-16T16:56:39.018Z,98735.15
2024-01-16T16:58:42.581Z,98725.68
2024-01-16T17:00:48.323Z,98720.48
2024-01-16T17:02:51.000Z,98717.59
2024-01-16T17:04:53.944Z,98721.95
2024-01-16T17:06:56.902Z,98722.05
2024-01-16T17:08:59.663Z,98722.90
2024-01-16T17:11:02.864Z,98723.06
2024-01-16T17:13:05.527Z,98722.27
2024-01-16T17:15:09.018Z,98719.77
2024-01-16T17:17:11.989Z,98714.74
2024-01-16T17:19:14.622Z,98713.70
2024-01-16T17:21:17.396Z,98713.83
2024-01-16T17:23:20.051Z,98716.90
2024-01-16T17:25:22.716Z,98723.38
2024-01-16T17:27:25.390Z,98723.08
2024-01-16T17:29:28.168Z,98721.41
2024-01-16T17:31:31.038Z,98720.45
2024-01-16T17:33:34.265Z,98717.82
2024-01-16T17:35:37.049Z,98711.65
2024-01-16T17:37:39.702Z,98705.90
2024-01-16T17:39:43.279Z,98700.23
2024-01-16T17:41:45.961Z,98702.15
2024-01-16T17:43:48.678Z,98705.73
2024-01-16T17:45:51.460Z,98705.58
2024-01-16T17:47:54.459Z,98703.28
2024-01-16T17:49:57.166Z,98698.73
2024-01-16T17:51:59.963Z,98692.59
2024-01-16T17:54:03.123Z,98689.15
2024-01-16T17:56:08.322Z,98689.30
2024-01-16T17:58:11.805Z,98689.80
2024-01-16T18:00:17.280Z,98679.32
2024-01-16T18:02:19.989Z,98680.33
2024-01-16T18:04:22.595Z,98679.73
2024-01-16T18:06:25.452Z,98680.95
2024-01-16T18:08:28.281Z,98685.72
2024-01-16T18:10:30.926Z,98691.45
2024-01-16T18:12:33.554Z,98696.54
2024-01-16T18:14:36.238Z,98694.98
2024-01-16T18:16:38.952Z,98693.17
2024-01-16T18:18:42.285Z,98688.44
2024-01-16T18:20:45.317Z,98691.56
2024-01-16T18:22:48.517Z,98693.60
2024-01-16T18:24:51.449Z,98692.52
2024-01-16T18:26:54.290Z,98691.67
2024-01-16T18:28:57.157Z,98693.45
2024-01-16T18:31:00.435Z,98691.77
2024-01-16T18:33:04.353Z,98690.72
2024-01-16T18:35:07.534Z,98691.84
2024-01-16T18:37:12.995Z,98689.98
2024-01-16T18:39:16.979Z,98687.44
2024-01-16T18:41:19.767Z,98691.33
2024-01-16T18:43:25.396Z,98700.42
2024-01-16T18:45:29.138Z,98701.46
2024-01-16T18:47:33.327Z,98700.39
2024-01-16T18:49:36.158Z,98697.77
2024-01-16T18:51:38.843Z,98696.77
2024-01-16T18:53:44.316Z,98693.79
2024-01-16T18:55:47.704Z,98696.88
2024-01-16T18:57:50.469Z,98695.73
2024-01-16T18:59:53.496Z,98699.13
2024-01-16T19:01:56.204Z,98697.97
2024-01-16T19:03:59.307Z,98699.70
2024-01-16T19:06:04.301Z,98695.70
2024-01-16T19:08:07.186Z,98692.38
2024-01-16T19:10:11.140Z,98692.08
2024-01-16T19:12:13.803Z,98692.39
2024-01-16T19:14:16.660Z,98690.22
2024-01-16T19:16:19.445Z,98685.60
2024-01-16T19:18:22.359Z,98685.83
2024-01-16T19:20:25.144Z,98690.39
2024-01-16T19:22:27.876Z,98690.38
2024-01-16T19:24:30.552Z,98686.07
2024-01-16T19:26:33.180Z,98680.22
2024-01-16T19:28:35.809Z,98678.60
2024-01-16T19:30:38.498Z,98681.92
2024-01-16T19:32:41.602Z,98681.20
2024-01-16T19:34:44.332Z,98683.55
2024-01-16T19:36:49.554Z,98690.07
2024-01-16T19:38:52.238Z,98690.27
2024-01-16T19:40:54.869Z,98696.61
2024-01-16T19:42:58.044Z,98695.25
2024-01-16T19:45:00.890Z,98695.66
2024-01-16T19:47:03.928Z,98693.95
2024-01-16T19:49:06.650Z,98695.50
2024-01-16T19:51:12.143Z,98693.53
2024-01-16T19:53:14.907Z,98693.58
2024-01-16T19:55:18.043Z,98687.42
2024-01-16T19:57:21.182Z,98685.86
2024-01-16T19:59:26.725Z,98689.17
2024-01-16T20:01:30.102Z,98682.67
2024-01-16T20:03:32.752Z,98680.98
2024-01-16T20:05:36.063Z,98674.40
2024-01-16T20:07:38.827Z,98670.92
2024-01-16T20:09:41.446Z,98669.14
2024-01-16T20:11:44.085Z,98664.48
2024-01-16T20:13:47.309Z,98663.20
2024-01-16T20:15:49.923Z,98663.06
2024-01-16T20:17:52.978Z,98660.07
2024-01-16T20:19:57.202Z,98661.46
2024-01-16T20:21:59.918Z,98663.70
2024-01-16T20:24:04.306Z,98661.55
2024-01-16T20:26:06.948Z,98665.54
2024-01-16T20:28:09.622Z,98656.88
2024-01-16T20:30:13.828Z,98660.32
2024-01-16T20:32:17.078Z,98651.77
2024-01-16T20:34:19.944Z,98651.82
2024-01-16T20:36:22.726Z,98647.70
2024-01-16T20:38:25.451Z,98645.14
2024-01-16T20:40:28.048Z,98642.80
2024-01-16T20:42:30.726Z,98637.33
2024-01-16T20:44:33.942Z,98635.75
2024-01-16T20:46:38.656Z,98632.74
2024-01-16T20:48:41.852Z,98630.45
2024-01-16T20:50:44.649Z,98630.42
2024-01-16T20:52:47.323Z,98623.10
2024-01-16T20:54:50.975Z,98621.33
2024-01-16T20:56:53.727Z,98623.37
2024-01-16T20:58:56.356Z,98617.57
2024-01-16T21:00:59.149Z,98613.84
2024-01-16T21:03:02.050Z,98617.92
2024-01-16T21:05:05.704Z,98619.41
2024-01-16T21:07:10.041Z,98620.07
2024-01-16T21:09:12.759Z,98616.91
2024-01-16T21:11:15.394Z,98614.45
2024-01-16T21:13:18.282Z,98617.27
2024-01-16T21:15:20.924Z,98618.75
2024-01-16T21:17:23.922Z,98615.69
2024-01-16T21:19:26.779Z,98617.09
2024-01-16T21:21:29.620Z,98613.71
2024-01-16T21:23:35.366Z,98615.23
2024-01-16T21:25:38.068Z,98616.08
2024-01-16T21:27:42.726Z,98619.92
2024-01-16T21:29:45.751Z,98623.06
2024-01-16T21:31:49.106Z,98624.41
2024-01-16T21:33:51.904Z,98621.79
2024-01-16T21:35:54.614Z,98621.59
2024-01-16T21:37:57.818Z,98618.60
2024-01-16T21:40:00.413Z,98616.36
2024-01-16T21:42:05.855Z,98613.90
2024-01-16T21:44:08.854Z,98614.58
2024-01-16T21:46:11.602Z,98615.98
2024-01-16T21:48:14.351Z,98615.23
2024-01-16T21:50:22.588Z,98615.75
2024-01-16T21:52:33.197Z,98607.96
2024-01-16T21:54:35.853Z,98608.35
2024-01-16T21:56:38.628Z,98606.76
2024-01-16T21:58:41.218Z,98609.83
2024-01-16T22:00:46.513Z,98606.05
2024-01-16T22:02:49.178Z,98598.78
2024-01-16T22:04:52.019Z,98600.72
2024-01-16T22:06:54.701Z,98599.76
2024-01-16T22:08:57.498Z,98599.00
2024-01-16T22:11:00.235Z,98596.66
2024-01-16T22:13:03.059Z,98599.90
2024-01-16T22:15:10.286Z,98596.58
2024-01-16T22:17:12.948Z,98597.48
2024-01-16T22:19:15.607Z,98595.64
2024-01-16T22:21:18.278Z,98590.20
2024-01-16T22:23:21.033Z,98585.42
2024-01-16T22:25:23.597Z,98583.66
2024-01-16T22:27:26.237Z,98577.42
2024-01-16T22:29:29.043Z,98571.64
2024-01-16T22:31:31.644Z,98563.03
2024-01-16T22:33:34.296Z,98557.13
2024-01-16T22:35:37.086Z,98560.57
2024-01-16T22:37:39.754Z,98551.89
2024-01-16T22:39:42.340Z,98541.34
2024-01-16T22:41:46.002Z,98544.58
2024-01-16T22:43:48.577Z,98549.14
2024-01-16T22:45:52.331Z,98549.05
2024-01-16T22:47:55.049Z,98546.14
2024-01-16T22:49:57.731Z,98546.02
2024-01-16T22:52:00.337Z,98547.38
2024-01-16T22:54:03.736Z,98546.38
2024-01-16T22:56:07.679Z,98549.27
2024-01-16T22:58:10.434Z,98549.07
2024-01-16T23:00:14.391Z,98549.44
2024-01-16T23:02:17.026Z,98548.45
2024-01-16T23:04:19.857Z,98545.51
2024-01-16T23:06:22.603Z,98541.27
2024-01-16T23:08:25.324Z,98537.18
2024-01-16T23:10:27.944Z,98531.27
2024-01-16T23:12:30.601Z,98531.38
2024-01-16T23:14:33.269Z,98529.62
2024-01-16T23:16:35.842Z,98530.86
2024-01-16T23:18:38.533Z,98527.09
2024-01-16T23:20:41.183Z,98524.94
2024-01-16T23:22:44.387Z,98521.02
2024-01-16T23:24:46.987Z,98519.67
2024-01-16T23:26:49.621Z,98521.91
2024-01-16T23:28:52.314Z,98518.10
2024-01-16T23:30:55.365Z,98515.02
2024-01-16T23:33:01.203Z,98508.27
2024-01-16T23:35:04.710Z,98504.25
2024-01-16T23:37:07.306Z,98499.00
2024-01-16T23:39:10.643Z,98491.59
2024-01-16T23:41:13.258Z,98488.21
2024-01-16T23:43:15.830Z,98486.50
2024-01-16T23:45:24.301Z,98484.95
2024-01-16T23:47:33.361Z,98486.70
2024-01-16T23:49:36.054Z,98484.85
2024-01-16T23:51:38.707Z,98480.35
2024-01-16T23:53:41.326Z,98479.21
2024-01-16T23:55:43.867Z,98481.48
2024-01-16T23:57:46.640Z,98478.13
2024-01-16T23:59:49.333Z,98474.06
